Terminal Aerodrome Forecast
Issued by NWS Central Illinois

Home | Current Version | Previous Version | Text Only | Print | Product List | Glossary On
Versions: 1 2 3 4 5 6 7 8 9 10 11 12 13 14 15 16 17 18 19 20 21 22 23 24 25 26 27
000
FTUS43 KILX 211724
TAFSPI
TAF
KSPI 211724Z 2118/2218 VRB03KT P6SM SCT008 BKN050
     FM212200 VRB03KT P6SM SCT080
     FM220300 VRB03KT 3SM BR FEW060
     FM220900 VRB03KT 1SM BR FEW070
     FM221500 20005KT P6SM FEW050=

USA.gov is the U.S. government's official web portal to all federal, state and local government web resources and services.